Main page
METAR-TAF:

Airports :

Current weather observation

The report was made 32 minutes ago, at 03:00 UTC
Wind 5 kt from the South, varying between South/Southeast and South/Southwest
Temperature 31°C
Humidity 79%
Pressure 1000 hPa
Visibility: 7000 m

METAR: OTBD 010300Z 19005KT 150V210 7000 NSC 31/27 Q1000 NOSIG

Time: 03:32 (03:32 UTC)

Forecast

The report was made 4 hours and 37 minutes ago, at 22:55 UTC
Forecast valid from 01 at 00 UTC to 02 at 06 UTC
Wind 5 kt from the Southwest
Visibility: 8000 m
Probability 30% :
Temporary
from 01 at 00 UTC to 01 at 04 UTC
Visibility: 5000 m
haze
Becoming
from 01 at 07 UTC to 01 at 09 UTC
Wind 11 kt from the Southeast
Becoming
from 02 at 00 UTC to 02 at 02 UTC
Wind 4 kt from the South/Southwest
Probability 30% :
Temporary
from 01 at 21 UTC to 02 at 04 UTC
Visibility: 5000 m
haze

TAF: OTBD 312255Z 0100/0206 22005KT 8000 NSC PROB30 TEMPO 0100/0104 5000 HZ BECMG 0107/0109 14011KT BECMG 0200/0202 20004KT PROB30 TEMPO 0121/0204 5000 HZ

METAR-TAF

Weather observations and forecasts of more than 4000 airports (METAR and TAF reports).

The available stations are represented by yellow and red dots on the map.

Hover mouse over dot to see the name of the station.

Then click to see weather observations and forecasts.

To change the map : click on the green buttons with a black cross to zoom in, on the green button with a dash to zoom out, or on the green arrows for adjacent maps.


METAR-TAF: